Time;durP1;ratioP1;P1;durP2;ratioP2;P2;SDS_P1;SDS_P2;PMS_P1;PMS_P2;Temp;Humidity;BMP_temperature;BMP_pressure;BME280_temperature;BME280_humidity;BME280_pressure;Samples;Min_cycle;Max_cycle;Signal;HPM_P1;HPM_P2
2022/07/08 00:00:33;;;;;;;15.40;2.88;;;;;;;15.59;71.45;102718.56;5041235;28;20382;-75
2022/07/08 00:02:59;;;;;;;7.40;1.42;;;;;;;15.60;71.57;102716.81;5061214;28;20028;-76
2022/07/08 00:05:24;;;;;;;12.65;1.80;;;;;;;15.59;71.42;102715.94;5064848;28;20024;-75
2022/07/08 00:07:50;;;;;;;4.55;1.30;;;;;;;15.64;70.94;102715.53;5058518;28;20637;-74
2022/07/08 00:10:15;;;;;;;12.52;2.38;;;;;;;15.61;71.37;102713.22;5047154;28;20527;-74
2022/07/08 00:12:41;;;;;;;8.68;1.85;;;;;;;15.60;71.30;102717.63;5040926;28;20085;-75
2022/07/08 00:15:08;;;;;;;6.60;1.48;;;;;;;15.59;71.54;102721.19;5070455;28;20024;-76
2022/07/08 00:17:34;;;;;;;10.90;1.75;;;;;;;15.61;71.41;102718.44;5060934;28;20491;-74
2022/07/08 00:20:00;;;;;;;6.63;1.80;;;;;;;15.54;71.06;102711.16;5064254;28;20119;-75
2022/07/08 00:22:25;;;;;;;10.55;2.13;;;;;;;15.54;70.96;102713.78;5041699;28;20025;-74
2022/07/08 00:24:51;;;;;;;13.27;3.35;;;;;;;15.53;71.36;102714.72;5057187;28;20033;-76
2022/07/08 00:27:16;;;;;;;7.63;1.60;;;;;;;15.56;71.35;102713.66;5060226;28;20033;-74
2022/07/08 00:29:42;;;;;;;8.07;1.45;;;;;;;15.55;71.26;102728.47;5042921;28;20110;-76
2022/07/08 00:32:08;;;;;;;5.18;1.58;;;;;;;15.53;71.35;102724.38;5036106;28;20025;-75
2022/07/08 00:34:33;;;;;;;5.15;1.45;;;;;;;15.53;71.21;102722.56;5043501;28;20040;-75
2022/07/08 00:36:59;;;;;;;11.82;2.10;;;;;;;15.49;71.57;102721.22;5037650;28;20036;-76
2022/07/08 00:39:25;;;;;;;12.05;1.58;;;;;;;15.45;71.91;102730.31;5039906;28;20604;-75
2022/07/08 00:41:50;;;;;;;8.77;1.48;;;;;;;15.46;72.08;102720.69;5056365;28;20488;-74
2022/07/08 00:44:16;;;;;;;6.78;1.73;;;;;;;15.47;71.53;102722.34;5056053;28;20041;-75
2022/07/08 00:46:41;;;;;;;12.52;1.65;;;;;;;15.48;71.16;102723.97;5041113;28;20028;-75
2022/07/08 00:49:07;;;;;;;6.85;1.88;;;;;;;15.44;70.99;102727.84;5056054;28;20040;-76
2022/07/08 00:51:33;;;;;;;9.77;1.45;;;;;;;15.40;71.37;102727.28;5038483;28;20048;-75
2022/07/08 00:53:59;;;;;;;8.18;1.42;;;;;;;15.46;71.18;102726.72;5053607;28;20589;-75
2022/07/08 00:56:25;;;;;;;7.97;2.28;;;;;;;15.45;71.17;102729.50;5055194;28;20028;-76
2022/07/08 00:58:51;;;;;;;9.38;1.33;;;;;;;15.48;70.74;102723.97;5037957;28;20456;-77
2022/07/08 01:01:17;;;;;;;12.60;1.45;;;;;;;15.42;70.36;102738.44;5053431;28;20032;-75
2022/07/08 01:03:44;;;;;;;7.85;1.63;;;;;;;15.33;70.73;102732.28;5039698;28;20075;-75
2022/07/08 01:06:10;;;;;;;6.75;1.27;;;;;;;15.35;70.90;102735.56;5061949;28;20071;-74
2022/07/08 01:08:35;;;;;;;13.57;1.45;;;;;;;15.37;71.08;102735.44;5044339;28;20032;-75
2022/07/08 01:11:01;;;;;;;5.43;1.15;;;;;;;15.34;71.20;102728.69;5060475;28;20040;-75
2022/07/08 01:13:27;;;;;;;7.30;1.88;;;;;;;15.31;71.29;102726.38;5061720;28;20547;-75
2022/07/08 01:15:52;;;;;;;5.68;1.10;;;;;;;15.32;71.23;102737.63;5045091;28;20763;-75
2022/07/08 01:18:36;;;;;;;6.65;2.17;;;;;;;15.30;71.30;102736.94;5042904;28;20043;-75
2022/07/08 01:21:01;;;;;;;6.30;1.50;;;;;;;15.32;71.31;102735.84;5059367;28;20036;-75
2022/07/08 01:23:27;;;;;;;5.93;1.73;;;;;;;15.40;71.11;102735.13;5053005;28;20047;-74
2022/07/08 01:25:54;;;;;;;6.70;1.38;;;;;;;15.33;70.54;102742.72;5062011;28;20072;-76
2022/07/08 01:28:19;;;;;;;7.70;1.40;;;;;;;15.31;70.79;102738.59;5060743;28;20036;-75
2022/07/08 01:30:45;;;;;;;14.18;2.72;;;;;;;15.28;71.39;102731.03;5058744;28;20040;-78
2022/07/08 01:33:11;;;;;;;7.70;1.55;;;;;;;15.27;70.95;102735.44;5058140;28;20020;-75
2022/07/08 01:35:37;;;;;;;10.05;1.40;;;;;;;15.33;70.98;102736.66;5041301;28;20056;-74
2022/07/08 01:38:03;;;;;;;9.98;2.00;;;;;;;15.26;70.43;102730.38;5056785;28;20028;-75
2022/07/08 01:40:28;;;;;;;5.22;1.75;;;;;;;15.25;70.16;102732.13;5059563;28;20626;-77
2022/07/08 01:42:54;;;;;;;6.35;1.50;;;;;;;15.20;70.39;102729.13;5060247;28;20066;-76
2022/07/08 01:45:19;;;;;;;6.55;1.30;;;;;;;15.11;70.77;102727.34;5037393;28;20042;-77
2022/07/08 01:47:45;;;;;;;10.80;2.13;;;;;;;15.10;71.07;102734.34;5056443;28;20040;-75
2022/07/08 01:50:10;;;;;;;6.50;1.58;;;;;;;15.11;71.45;102736.00;5058629;28;20094;-75
2022/07/08 01:52:36;;;;;;;9.95;2.13;;;;;;;15.14;71.69;102735.75;5059097;28;20665;-75
2022/07/08 01:55:03;;;;;;;5.65;1.25;;;;;;;15.16;71.52;102735.59;5055152;28;20090;-75
2022/07/08 01:57:28;;;;;;;9.77;1.58;;;;;;;15.17;71.98;102735.44;5059886;28;20097;-75
2022/07/08 01:59:54;;;;;;;8.90;2.10;;;;;;;15.16;71.56;102735.59;5038050;28;20489;-76
2022/07/08 02:02:21;;;;;;;6.50;1.48;;;;;;;15.15;71.73;102736.56;5055753;28;20084;-75
2022/07/08 02:04:47;;;;;;;8.30;1.63;;;;;;;15.16;71.72;102730.34;5025282;28;20040;-77
2022/07/08 02:07:14;;;;;;;6.72;1.58;;;;;;;15.11;71.68;102738.63;5053442;28;20574;-76
2022/07/08 02:09:40;;;;;;;6.53;1.48;;;;;;;15.09;71.74;102732.72;5043086;28;20059;-76
2022/07/08 02:12:19;;;;;;;6.38;1.65;;;;;;;15.06;71.75;102722.53;5041391;28;20035;-75
2022/07/08 02:15:01;;;;;;;10.52;1.40;;;;;;;15.07;71.92;102729.41;5060408;28;20029;-75
2022/07/08 02:17:28;;;;;;;9.07;1.42;;;;;;;15.09;71.64;102734.50;5043972;28;20032;-75
2022/07/08 02:19:53;;;;;;;4.47;1.20;;;;;;;15.08;71.80;102725.00;5058285;28;20037;-75
2022/07/08 02:22:19;;;;;;;7.53;1.33;;;;;;;15.07;71.58;102725.97;5042989;28;20032;-77
2022/07/08 02:24:44;;;;;;;9.50;1.85;;;;;;;14.98;71.65;102723.22;5060706;28;20043;-76
2022/07/08 02:27:10;;;;;;;7.82;1.15;;;;;;;14.96;71.49;102724.34;5044130;28;20496;-76
2022/07/08 02:29:35;;;;;;;7.07;1.40;;;;;;;14.94;71.93;102726.25;5058927;28;20040;-76
2022/07/08 02:32:01;;;;;;;4.93;1.38;;;;;;;14.94;72.08;102719.25;5061152;28;20032;-76
2022/07/08 02:34:28;;;;;;;10.00;1.52;;;;;;;14.95;72.27;102718.25;5042142;28;20486;-76
2022/07/08 02:36:53;;;;;;;11.15;1.63;;;;;;;14.96;72.28;102724.34;5060954;28;20033;-75
2022/07/08 02:39:19;;;;;;;5.55;1.00;;;;;;;14.99;72.26;102727.50;5059493;28;20040;-78
2022/07/08 02:41:44;;;;;;;6.10;1.40;;;;;;;14.96;72.31;102722.53;5046569;28;20032;-77
2022/07/08 02:44:10;;;;;;;8.38;2.05;;;;;;;14.95;72.30;102731.31;5059289;28;20098;-75
2022/07/08 02:46:38;;;;;;;10.13;1.55;;;;;;;14.90;72.38;102722.25;5043560;28;20634;-75
2022/07/08 02:49:03;;;;;;;3.17;1.10;;;;;;;14.90;72.03;102728.31;5041677;28;20102;-75
2022/07/08 02:51:29;;;;;;;7.03;1.55;;;;;;;14.86;72.37;102734.78;5043092;28;20041;-78
2022/07/08 02:53:55;;;;;;;9.70;2.08;;;;;;;14.88;72.42;102738.09;5044073;28;20048;-75
2022/07/08 02:56:21;;;;;;;7.93;1.48;;;;;;;14.83;72.78;102736.84;5059733;28;20037;-76
2022/07/08 02:58:46;;;;;;;6.47;1.20;;;;;;;14.82;73.10;102737.78;5042846;28;20059;-78
2022/07/08 03:01:12;;;;;;;10.43;1.38;;;;;;;14.84;73.01;102739.28;5043317;28;20055;-75
2022/07/08 03:03:37;;;;;;;8.98;1.92;;;;;;;14.83;72.74;102737.66;5047085;28;20024;-74
2022/07/08 03:06:03;;;;;;;7.95;1.60;;;;;;;14.78;73.00;102742.47;5058870;28;20036;-74
2022/07/08 03:08:29;;;;;;;5.40;1.50;;;;;;;14.75;73.45;102745.38;5059664;28;20525;-76
2022/07/08 03:10:54;;;;;;;7.70;2.08;;;;;;;14.73;73.64;102748.09;5061838;28;20032;-75
2022/07/08 03:13:20;;;;;;;8.60;1.73;;;;;;;14.73;73.75;102747.25;5059532;28;20115;-75
2022/07/08 03:15:45;;;;;;;10.05;1.38;;;;;;;14.71;73.69;102747.44;5060332;28;20025;-75
2022/07/08 03:18:11;;;;;;;5.65;1.30;;;;;;;14.72;73.72;102749.06;5043400;28;20568;-76
2022/07/08 03:20:36;;;;;;;5.15;1.27;;;;;;;14.68;73.83;102749.47;5059059;28;20044;-75
2022/07/08 03:23:02;;;;;;;7.80;1.73;;;;;;;14.65;73.82;102739.28;5061657;28;20040;-77
2022/07/08 03:25:29;;;;;;;5.30;1.33;;;;;;;14.65;73.96;102745.34;5041597;28;20461;-75
2022/07/08 03:27:55;;;;;;;12.65;1.40;;;;;;;14.68;74.16;102746.88;5043218;28;20489;-75
2022/07/08 03:30:21;;;;;;;13.48;1.50;;;;;;;14.69;73.89;102743.28;5027446;28;20036;-75
2022/07/08 03:32:46;;;;;;;6.32;1.50;;;;;;;14.73;73.60;102744.66;5061692;28;20485;-74
2022/07/08 03:35:12;;;;;;;6.18;1.27;;;;;;;14.74;73.37;102741.91;5026278;28;20040;-75
2022/07/08 03:37:42;;;;;;;7.10;0.95;;;;;;;14.73;73.33;102755.09;5058877;28;20032;-75
2022/07/08 03:42:52;;;;;;;6.72;1.65;;;;;;;14.64;73.43;102746.31;5058496;28;20379;-75
2022/07/08 03:45:18;;;;;;;9.90;1.77;;;;;;;14.62;73.81;102744.78;5045499;28;20032;-77
2022/07/08 03:47:44;;;;;;;3.78;1.10;;;;;;;14.60;73.83;102748.38;5059527;28;20170;-75
2022/07/08 03:50:09;;;;;;;9.27;1.95;;;;;;;14.59;74.04;102749.31;5043332;28;20036;-75
2022/07/08 03:52:34;;;;;;;9.15;1.13;;;;;;;14.58;74.02;102752.91;5040687;28;20032;-76
2022/07/08 03:55:00;;;;;;;8.30;2.20;;;;;;;14.59;73.85;102746.69;5064164;28;20035;-77
2022/07/08 03:57:25;;;;;;;5.15;1.30;;;;;;;14.57;73.88;102759.06;5030282;28;20557;-74
2022/07/08 03:59:51;;;;;;;4.00;1.45;;;;;;;14.59;73.88;102759.75;5046274;28;20032;-75
2022/07/08 04:02:17;;;;;;;5.22;1.27;;;;;;;14.64;73.60;102766.38;5039062;28;20028;-75
2022/07/08 04:04:42;;;;;;;5.20;1.55;;;;;;;14.65;73.59;102763.59;5047824;28;20047;-76
2022/07/08 04:07:08;;;;;;;11.85;1.40;;;;;;;14.66;73.54;102759.25;5046929;28;20032;-75
2022/07/08 04:09:33;;;;;;;9.63;1.42;;;;;;;14.68;73.54;102765.97;5044279;28;20028;-75
2022/07/08 04:11:59;;;;;;;7.25;1.35;;;;;;;14.69;73.64;102769.38;5044588;28;20033;-75
2022/07/08 04:14:24;;;;;;;6.85;1.75;;;;;;;14.64;74.17;102763.78;5028053;28;20499;-75
2022/07/08 04:16:50;;;;;;;6.97;1.50;;;;;;;14.63;74.09;102762.09;5041445;28;20035;-76
2022/07/08 04:19:15;;;;;;;9.32;1.67;;;;;;;14.67;74.14;102763.47;5040668;28;20145;-76
2022/07/08 04:21:41;;;;;;;5.82;1.20;;;;;;;14.64;74.09;102767.19;5042503;28;20025;-75
2022/07/08 04:24:07;;;;;;;7.75;1.45;;;;;;;14.68;74.00;102763.34;5044324;28;20032;-74
2022/07/08 04:26:32;;;;;;;6.40;1.40;;;;;;;14.70;74.15;102764.03;5044696;28;20040;-77
2022/07/08 04:28:59;;;;;;;6.43;1.27;;;;;;;14.67;74.14;102772.13;5059742;28;20032;-75
2022/07/08 04:31:25;;;;;;;9.93;1.85;;;;;;;14.68;74.20;102771.19;5057568;28;20029;-76
2022/07/08 04:33:51;;;;;;;6.35;1.88;;;;;;;14.72;73.94;102764.72;5055637;28;20036;-75
2022/07/08 04:36:16;;;;;;;14.23;2.40;;;;;;;14.75;74.08;102774.91;5028579;28;20075;-74
2022/07/08 04:38:42;;;;;;;7.85;2.20;;;;;;;14.73;73.98;102771.63;5046353;28;20029;-75
2022/07/08 04:41:07;;;;;;;9.77;1.67;;;;;;;14.71;73.99;102768.31;5062403;28;20496;-74
2022/07/08 04:43:32;;;;;;;8.15;1.50;;;;;;;14.70;74.13;102777.09;5029599;28;20366;-74
2022/07/08 04:45:58;;;;;;;13.13;1.85;;;;;;;14.66;74.41;102778.31;5044650;28;20071;-75
2022/07/08 04:48:24;;;;;;;9.25;1.75;;;;;;;14.62;74.64;102790.00;5062582;28;20116;-76
2022/07/08 04:50:50;;;;;;;6.72;1.90;;;;;;;14.60;74.62;102789.31;5046251;28;20058;-77
2022/07/08 04:53:15;;;;;;;7.00;2.08;;;;;;;14.62;74.76;102789.16;5063184;28;20032;-77
2022/07/08 04:55:41;;;;;;;11.23;2.22;;;;;;;14.67;74.67;102789.59;5047294;28;20037;-76
2022/07/08 04:58:06;;;;;;;6.35;1.70;;;;;;;14.73;74.02;102796.88;5026244;28;20035;-74
2022/07/08 05:00:33;;;;;;;14.60;2.13;;;;;;;14.78;73.04;102792.09;5063034;28;20020;-75
2022/07/08 05:02:59;;;;;;;7.43;1.65;;;;;;;14.82;73.27;102796.06;5047375;28;20040;-75
2022/07/08 05:05:26;;;;;;;10.25;2.00;;;;;;;14.83;73.27;102795.13;5067313;28;20044;-74
2022/07/08 05:07:51;;;;;;;7.65;1.88;;;;;;;14.78;72.84;102805.94;5064549;28;20519;-75
2022/07/08 05:10:19;;;;;;;14.13;2.20;;;;;;;14.93;72.61;102800.34;5047244;28;20067;-75
2022/07/08 05:12:45;;;;;;;7.70;2.03;;;;;;;14.93;72.43;102802.97;5062407;28;20123;-76
2022/07/08 05:15:11;;;;;;;7.88;1.58;;;;;;;14.95;72.10;102804.47;5045184;28;20116;-74
2022/07/08 05:17:37;;;;;;;12.18;2.35;;;;;;;15.01;71.39;102797.88;5064294;28;20021;-76
2022/07/08 05:20:05;;;;;;;6.10;2.10;;;;;;;15.12;71.59;102804.75;5063613;28;20047;-75
2022/07/08 05:22:30;;;;;;;7.80;1.65;;;;;;;15.18;71.17;102807.66;5044377;28;20115;-76
2022/07/08 05:24:55;;;;;;;17.17;2.80;;;;;;;15.28;71.24;102804.22;5046448;28;20047;-78
2022/07/08 05:27:21;;;;;;;17.40;2.17;;;;;;;15.27;70.45;102803.38;5062034;28;20025;-75
2022/07/08 05:29:46;;;;;;;8.85;2.10;;;;;;;15.45;70.41;102802.69;5062921;28;20512;-75
2022/07/08 05:32:12;;;;;;;8.82;2.15;;;;;;;15.59;70.01;102815.31;5062297;28;20040;-75
2022/07/08 05:34:39;;;;;;;12.98;2.50;;;;;;;15.78;69.72;102809.25;5066409;28;20052;-75
2022/07/08 05:37:06;;;;;;;7.28;2.15;;;;;;;15.93;68.17;102812.25;5054015;28;20128;-75
2022/07/08 05:39:31;;;;;;;12.30;2.60;;;;;;;16.04;67.61;102819.09;5046796;28;20047;-75
2022/07/08 05:41:57;;;;;;;8.18;1.90;;;;;;;16.19;67.21;102815.03;5039516;28;20037;-75
2022/07/08 05:44:22;;;;;;;7.60;1.92;;;;;;;16.30;67.01;102822.69;5030465;28;20040;-75
2022/07/08 05:46:48;;;;;;;4.85;2.22;;;;;;;16.39;66.32;102825.41;5042431;28;20032;-77
2022/07/08 05:49:13;;;;;;;12.52;2.13;;;;;;;16.38;65.89;102815.91;5041153;28;20090;-75
2022/07/08 05:51:39;;;;;;;11.43;2.15;;;;;;;16.53;64.68;102815.28;5057006;28;20032;-75
2022/07/08 05:54:04;;;;;;;8.95;2.47;;;;;;;16.70;64.92;102818.91;5039844;28;20041;-74
2022/07/08 05:56:30;;;;;;;5.55;1.70;;;;;;;16.88;64.38;102824.19;5055671;28;20485;-74
2022/07/08 05:58:55;;;;;;;6.68;1.77;;;;;;;17.25;63.73;102823.22;5040908;28;20433;-73
2022/07/08 06:01:21;;;;;;;8.75;1.92;;;;;;;17.36;61.39;102829.19;5056979;28;20037;-75
2022/07/08 06:03:46;;;;;;;10.25;2.05;;;;;;;17.49;61.46;102829.63;5059659;28;20040;-75
2022/07/08 06:06:11;;;;;;;4.18;1.50;;;;;;;17.61;61.75;102817.09;5039883;28;20036;-74
2022/07/08 06:08:37;;;;;;;17.05;1.90;;;;;;;17.53;60.71;102828.34;5042517;28;20032;-77
2022/07/08 06:11:03;;;;;;;9.73;2.22;;;;;;;17.73;60.15;102830.78;5049812;28;20067;-76
2022/07/08 06:13:29;;;;;;;6.57;1.35;;;;;;;18.07;58.98;102836.91;5044982;28;20549;-74
2022/07/08 06:15:54;;;;;;;6.03;1.85;;;;;;;18.20;59.10;102825.97;5060175;28;20029;-76
2022/07/08 06:18:20;;;;;;;9.20;1.65;;;;;;;18.24;59.29;102832.56;5040043;28;20041;-74
2022/07/08 06:20:45;;;;;;;22.48;2.75;;;;;;;18.32;58.89;102838.84;5058848;28;20667;-74
2022/07/08 06:23:10;;;;;;;4.22;1.30;;;;;;;18.68;57.03;102837.66;5058728;28;20795;-75
2022/07/08 06:25:36;;;;;;;7.57;1.40;;;;;;;18.96;56.34;102842.63;5025008;28;20113;-76
2022/07/08 06:28:02;;;;;;;12.57;2.35;;;;;;;18.60;57.40;102842.06;5044229;28;20120;-75
2022/07/08 06:30:28;;;;;;;10.15;1.90;;;;;;;18.26;57.78;102856.03;5047771;28;20067;-75
2022/07/08 06:32:53;;;;;;;10.30;1.77;;;;;;;18.21;58.74;102853.06;5044214;28;20036;-74
2022/07/08 06:35:19;;;;;;;9.18;1.88;;;;;;;18.16;58.71;102853.53;5065696;28;20062;-76
2022/07/08 06:37:44;;;;;;;8.00;2.05;;;;;;;18.17;58.79;102857.78;5046334;28;20749;-75
2022/07/08 06:40:10;;;;;;;4.88;1.10;;;;;;;18.19;58.59;102860.25;5045238;28;20040;-76
2022/07/08 06:42:36;;;;;;;7.75;1.48;;;;;;;18.36;57.62;102861.97;5065766;28;20060;-78
2022/07/08 06:45:05;;;;;;;14.02;3.97;;;;;;;18.44;57.70;102854.16;5043525;28;20212;-75
2022/07/08 06:47:30;;;;;;;10.88;2.50;;;;;;;18.30;58.25;102860.00;5056320;28;20044;-75
2022/07/08 06:49:56;;;;;;;14.77;1.70;;;;;;;18.13;58.98;102859.09;5027121;28;20044;-75
2022/07/08 06:52:21;;;;;;;5.80;1.20;;;;;;;18.00;59.61;102856.06;5045484;28;20044;-79
2022/07/08 06:54:47;;;;;;;8.80;1.90;;;;;;;17.85;59.67;102858.44;5045580;28;20028;-76
2022/07/08 06:57:14;;;;;;;4.20;1.38;;;;;;;17.72;60.41;102871.91;5048572;28;20530;-76
2022/07/08 06:59:39;;;;;;;9.98;1.73;;;;;;;17.57;60.92;102869.03;5063426;28;20484;-75
2022/07/08 07:02:05;;;;;;;10.60;2.00;;;;;;;18.27;60.43;102871.63;5043588;28;20047;-78
2022/07/08 07:04:31;;;;;;;9.02;1.40;;;;;;;18.41;58.67;102864.16;5047058;28;20071;-75
2022/07/08 07:06:56;;;;;;;5.60;1.60;;;;;;;18.39;57.98;102858.22;5046773;28;20036;-74
2022/07/08 07:09:22;;;;;;;6.40;1.45;;;;;;;18.31;57.66;102863.44;5066972;28;20031;-76
2022/07/08 07:11:48;;;;;;;6.30;1.60;;;;;;;18.74;55.62;102864.25;5061530;28;20090;-78
2022/07/08 07:14:14;;;;;;;4.05;1.15;;;;;;;18.70;56.21;102870.81;5046146;28;20412;-75
2022/07/08 07:16:39;;;;;;;6.10;1.27;;;;;;;18.48;56.37;102873.03;5048803;28;20017;-75
2022/07/08 07:19:05;;;;;;;8.13;1.50;;;;;;;18.21;56.57;102874.06;5045190;28;20454;-74
2022/07/08 07:21:30;;;;;;;8.38;1.33;;;;;;;18.17;56.74;102868.28;5042844;28;20032;-76
2022/07/08 07:23:56;;;;;;;11.13;1.52;;;;;;;18.29;56.42;102871.50;5058949;28;20032;-75
2022/07/08 07:26:21;;;;;;;7.18;1.50;;;;;;;18.41;56.27;102882.53;5043945;28;20280;-74
2022/07/08 07:28:47;;;;;;;11.38;1.38;;;;;;;18.31;56.81;102876.56;5043914;28;20408;-73
2022/07/08 07:31:12;;;;;;;12.15;1.42;;;;;;;18.43;56.51;102881.38;5059638;28;20035;-75
2022/07/08 07:33:38;;;;;;;11.40;1.45;;;;;;;19.06;55.46;102877.50;5048980;28;20032;-75
2022/07/08 07:36:04;;;;;;;9.27;1.25;;;;;;;18.83;55.63;102874.63;5047256;28;20037;-75
2022/07/08 07:38:29;;;;;;;11.45;2.45;;;;;;;18.67;55.62;102882.47;5060398;28;20040;-75
2022/07/08 07:40:55;;;;;;;9.32;1.20;;;;;;;18.28;56.44;102882.97;5033657;28;20037;-75
2022/07/08 07:43:20;;;;;;;7.05;1.40;;;;;;;18.52;56.20;102873.56;5045711;28;20040;-76
2022/07/08 07:45:46;;;;;;;7.25;1.23;;;;;;;19.37;54.19;102871.59;5046648;28;20044;-75
2022/07/08 07:48:11;;;;;;;12.75;1.63;;;;;;;20.16;51.88;102866.56;5051387;28;20024;-76
2022/07/08 07:50:37;;;;;;;7.82;1.23;;;;;;;20.84;50.06;102855.56;5027616;28;20413;-77
2022/07/08 07:53:02;;;;;;;12.55;1.75;;;;;;;21.31;48.68;102857.22;5042950;28;20074;-75
2022/07/08 07:55:28;;;;;;;5.47;1.20;;;;;;;21.89;47.73;102854.88;5060650;28;20036;-75
2022/07/08 07:57:53;;;;;;;7.53;1.30;;;;;;;21.78;47.72;102854.31;5045793;28;20040;-75
2022/07/08 08:00:18;;;;;;;9.13;1.50;;;;;;;22.31;46.85;102854.22;5046081;28;20029;-77
2022/07/08 08:02:44;;;;;;;10.55;2.42;;;;;;;22.25;46.72;102862.88;5047840;28;20507;-76
2022/07/08 08:05:10;;;;;;;6.70;1.45;;;;;;;22.71;45.62;102853.84;5044810;28;20120;-77
2022/07/08 08:07:38;;;;;;;7.53;1.45;;;;;;;23.06;45.32;102856.66;5062553;28;20054;-76
2022/07/08 08:10:04;;;;;;;8.80;2.20;;;;;;;23.10;44.44;102852.63;5048764;28;20033;-76
2022/07/08 08:12:30;;;;;;;6.18;2.08;;;;;;;23.31;44.08;102857.06;5045716;28;20059;-76
2022/07/08 08:14:56;;;;;;;5.88;1.50;;;;;;;23.57;43.35;102853.81;5046386;28;20028;-76
2022/07/08 08:17:21;;;;;;;8.73;2.45;;;;;;;24.09;43.24;102854.31;5063201;28;20493;-76
2022/07/08 08:19:47;;;;;;;4.97;1.20;;;;;;;24.29;42.09;102852.56;5046910;28;20933;-76
2022/07/08 08:22:13;;;;;;;4.22;1.23;;;;;;;24.24;42.17;102852.38;5045277;28;20048;-77
2022/07/08 08:24:38;;;;;;;4.47;0.90;;;;;;;23.55;43.06;102849.72;5062557;28;20045;-75
2022/07/08 08:27:04;;;;;;;6.18;1.08;;;;;;;22.63;45.37;102852.13;5061168;28;20043;-76
2022/07/08 08:29:29;;;;;;;5.80;1.20;;;;;;;23.36;44.29;102853.84;5030173;28;20036;-76
2022/07/08 08:31:55;;;;;;;6.68;1.50;;;;;;;23.65;43.00;102856.28;5049054;28;20038;-75
2022/07/08 08:34:21;;;;;;;10.32;2.20;;;;;;;23.66;42.66;102860.59;5063801;28;20037;-75
2022/07/08 08:36:46;;;;;;;10.23;1.42;;;;;;;24.06;41.41;102855.53;5068883;28;20021;-75
2022/07/08 08:39:12;;;;;;;8.90;1.42;;;;;;;24.40;41.75;102853.03;5050033;28;20477;-75
2022/07/08 08:41:39;;;;;;;7.25;1.88;;;;;;;24.67;41.08;102841.47;5026055;28;20024;-76
2022/07/08 08:44:05;;;;;;;8.70;1.83;;;;;;;24.94;40.23;102844.19;5043634;28;20036;-75
2022/07/08 08:46:31;;;;;;;9.27;1.75;;;;;;;24.52;40.81;102838.19;5044242;28;20516;-75
2022/07/08 08:48:57;;;;;;;9.63;1.52;;;;;;;24.45;40.42;102838.16;5066863;28;20139;-76
2022/07/08 08:51:23;;;;;;;11.13;1.63;;;;;;;24.37;39.54;102840.16;5023281;28;20056;-76
2022/07/08 08:53:48;;;;;;;5.13;1.08;;;;;;;24.51;39.99;102836.53;5028975;28;20028;-75
2022/07/08 08:56:16;;;;;;;7.53;1.25;;;;;;;24.46;39.68;102846.91;5059939;28;20381;-74
2022/07/08 08:58:46;;;;;;;12.13;1.65;;;;;;;24.77;39.67;102842.94;5063806;28;20036;-76
2022/07/08 09:01:13;;;;;;;7.72;1.65;;;;;;;24.42;40.64;102838.53;5059177;28;20072;-77
2022/07/08 09:03:38;;;;;;;9.65;1.45;;;;;;;25.05;39.34;102840.94;5032325;28;20082;-76
2022/07/08 09:06:04;;;;;;;9.40;1.75;;;;;;;24.82;40.02;102843.16;5039826;28;20028;-76
2022/07/08 09:08:31;;;;;;;6.85;1.92;;;;;;;24.70;39.94;102844.78;5043435;28;20840;-76
2022/07/08 09:10:56;;;;;;;8.27;1.80;;;;;;;24.64;40.57;102841.91;5043411;28;20039;-78
2022/07/08 09:13:25;;;;;;;6.75;1.90;;;;;;;24.89;42.22;102851.13;5041793;28;20036;-77
2022/07/08 09:15:57;;;;;;;6.93;1.42;;;;;;;24.59;41.19;102849.63;5060354;28;20406;-76
2022/07/08 09:18:27;;;;;;;4.18;1.38;;;;;;;24.03;41.71;102852.47;5045801;28;20125;-76
2022/07/08 09:20:55;;;;;;;9.63;1.75;;;;;;;23.52;42.61;102854.38;5042031;28;20098;-76
2022/07/08 09:23:35;;;;;;;7.40;1.25;;;;;;;23.00;43.40;102860.03;5043143;28;20441;-76
2022/07/08 09:26:06;;;;;;;9.02;1.50;;;;;;;23.69;42.47;102846.13;5044979;28;20555;-77
2022/07/08 09:28:40;;;;;;;9.05;1.15;;;;;;;24.15;41.98;102847.41;5042360;28;20032;-77
2022/07/08 09:31:07;;;;;;;4.90;1.45;;;;;;;24.48;40.91;102837.75;5062500;28;20032;-75
2022/07/08 09:33:34;;;;;;;8.25;1.27;;;;;;;24.71;40.59;102841.09;5043748;28;20567;-76
2022/07/08 09:36:03;;;;;;;8.38;2.13;;;;;;;24.90;40.70;102847.44;5043818;28;20477;-78
2022/07/08 09:38:30;;;;;;;11.10;1.38;;;;;;;24.75;40.20;102844.97;5042089;28;20038;-77
2022/07/08 09:41:03;;;;;;;10.55;2.33;;;;;;;24.43;41.22;102845.50;5060096;28;20044;-77
2022/07/08 09:43:29;;;;;;;9.35;1.83;;;;;;;24.49;41.16;102844.69;5036452;28;20094;-76
2022/07/08 09:46:03;;;;;;;5.85;1.40;;;;;;;24.60;40.11;102842.50;5061506;28;20035;-77
2022/07/08 09:48:29;;;;;;;9.00;1.42;;;;;;;24.82;40.68;102843.94;5022965;28;20457;-77
2022/07/08 09:50:55;;;;;;;6.68;1.38;;;;;;;24.81;39.08;102842.34;5046848;28;20057;-77
2022/07/08 09:53:25;;;;;;;6.93;1.40;;;;;;;24.93;38.62;102845.19;5056515;28;20033;-77
2022/07/08 09:55:52;;;;;;;6.57;1.40;;;;;;;24.59;40.68;102840.88;5062532;28;20485;-77
2022/07/08 09:58:26;;;;;;;5.88;1.23;;;;;;;24.72;40.82;102848.84;5059837;28;20033;-76
2022/07/08 10:00:53;;;;;;;6.25;1.23;;;;;;;25.31;40.46;102836.66;5030766;28;20120;-74
2022/07/08 10:03:21;;;;;;;7.82;1.30;;;;;;;25.28;39.03;102849.50;5041505;28;20445;-74
2022/07/08 10:05:46;;;;;;;5.43;1.05;;;;;;;25.50;40.13;102839.50;5059195;28;20039;-75
2022/07/08 10:08:13;;;;;;;5.63;1.45;;;;;;;25.94;38.80;102843.31;5040199;28;20425;-75
2022/07/08 10:10:41;;;;;;;5.72;1.48;;;;;;;26.09;37.95;102835.88;5059214;28;20060;-73
2022/07/08 10:13:07;;;;;;;5.85;1.25;;;;;;;25.84;38.91;102838.38;5059830;28;20480;-73
2022/07/08 10:15:34;;;;;;;12.35;2.28;;;;;;;25.96;39.74;102841.25;5059012;28;20496;-75
2022/07/08 10:18:14;;;;;;;8.98;1.55;;;;;;;25.99;38.51;102838.16;5060174;28;20028;-74
2022/07/08 10:20:44;;;;;;;5.25;1.42;;;;;;;25.57;38.66;102837.63;5043811;28;20032;-73
2022/07/08 10:23:16;;;;;;;4.28;1.25;;;;;;;25.43;39.97;102832.34;5055623;28;20074;-74
2022/07/08 10:25:43;;;;;;;10.55;1.73;;;;;;;24.97;40.85;102837.66;5042243;28;20048;-76
2022/07/08 10:28:10;;;;;;;5.05;1.50;;;;;;;24.75;41.76;102843.16;5058009;28;20960;-74
2022/07/08 10:30:49;;;;;;;10.07;1.58;;;;;;;24.91;40.60;102836.63;5058047;28;20039;-76
2022/07/08 10:33:19;;;;;;;5.97;1.10;;;;;;;24.81;41.08;102829.06;5039695;28;20028;-76
2022/07/08 10:36:05;;;;;;;10.13;1.70;;;;;;;25.08;40.57;102830.94;5042117;28;20032;-75
2022/07/08 10:38:34;;;;;;;7.78;1.65;;;;;;;24.74;41.02;102835.38;5042931;28;20093;-74
2022/07/08 10:41:02;;;;;;;8.02;1.42;;;;;;;24.65;40.99;102843.53;5055118;28;20061;-74
2022/07/08 10:43:29;;;;;;;14.68;2.95;;;;;;;24.86;41.30;102836.41;5055802;28;20033;-74
2022/07/08 10:46:10;;;;;;;8.63;1.58;;;;;;;24.82;40.87;102841.31;5058710;28;20047;-76
2022/07/08 10:48:41;;;;;;;5.85;1.10;;;;;;;24.78;40.29;102833.97;5057324;28;20689;-75
2022/07/08 10:51:19;;;;;;;5.20;2.05;;;;;;;24.86;40.87;102839.06;5041529;28;20039;-78
2022/07/08 10:53:57;;;;;;;5.60;1.30;;;;;;;24.31;41.37;102840.97;5024507;28;20043;-77
2022/07/08 10:56:44;;;;;;;7.05;1.30;;;;;;;24.30;42.55;102837.50;5055811;28;20021;-74
2022/07/08 10:59:23;;;;;;;6.72;1.20;;;;;;;24.71;41.97;102833.94;5056133;28;20039;-73
2022/07/08 11:01:58;;;;;;;6.57;2.05;;;;;;;24.47;42.77;102830.00;5057459;28;20048;-74
2022/07/08 11:04:23;;;;;;;10.23;1.38;;;;;;;24.29;42.75;102831.38;5041473;28;20086;-75
2022/07/08 11:06:49;;;;;;;7.25;1.27;;;;;;;24.38;43.45;102824.06;5031472;28;20497;-75
2022/07/08 11:09:19;;;;;;;7.43;1.45;;;;;;;24.44;42.63;102827.75;5064242;28;20032;-75
2022/07/08 11:11:45;;;;;;;7.50;2.10;;;;;;;24.43;42.37;102828.75;5048960;28;21006;-75
2022/07/08 11:14:14;;;;;;;9.25;1.33;;;;;;;24.84;42.33;102835.78;5049332;28;20484;-73
2022/07/08 11:16:40;;;;;;;9.98;2.22;;;;;;;24.28;42.42;102824.44;5050300;28;20043;-74
2022/07/08 11:19:06;;;;;;;12.73;2.30;;;;;;;24.72;44.14;102834.78;5061643;28;20628;-73
2022/07/08 11:21:32;;;;;;;7.53;2.13;;;;;;;25.16;43.25;102833.38;5046770;28;20135;-75
2022/07/08 11:23:58;;;;;;;10.57;2.13;;;;;;;25.05;41.78;102832.13;5030570;28;20037;-76